Time;durP1;ratioP1;P1;durP2;ratioP2;P2;SDS_P1;SDS_P2;PMS_P1;PMS_P2;Temp;Humidity;BMP_temperature;BMP_pressure;BME280_temperature;BME280_humidity;BME280_pressure;Samples;Min_cycle;Max_cycle;Signal;HPM_P1;HPM_P2
2022/02/24 00:00:25;;;;;;;;;;;;;;;1.90;78.14;99019.86;1759933;79;22138;-86
2022/02/24 00:02:53;;;;;;;;;;;;;;;1.96;78.42;99018.42;1757935;80;21031;-84
2022/02/24 00:05:19;;;;;;;;;;;;;;;1.98;78.71;99013.19;1761907;80;24692;-84
2022/02/24 00:07:45;;;;;;;;;;;;;;;1.94;78.93;99010.30;1762698;81;20173;-86
2022/02/24 00:10:15;;;;;;;;;;;;;;;1.92;79.16;99012.91;1724598;80;24746;-85
2022/02/24 00:12:45;;;;;;;;;;;;;;;1.93;79.40;99013.31;1757581;80;21861;-87
2022/02/24 00:15:11;;;;;;;;;;;;;;;1.96;79.65;99007.25;1754999;80;26140;-87
2022/02/24 00:17:37;;;;;;;;;;;;;;;1.97;79.89;99006.33;1754782;80;24535;-84
2022/02/24 00:20:03;;;;;;;;;;;;;;;2.00;80.14;98999.81;1752405;80;20224;-84
2022/02/24 00:22:31;;;;;;;;;;;;;;;2.01;80.39;98995.91;1756808;80;24745;-83
2022/02/24 00:24:57;;;;;;;;;;;;;;;1.97;80.55;99002.46;1760260;80;21982;-86
2022/02/24 00:27:24;;;;;;;;;;;;;;;1.90;80.68;99001.80;1757947;80;25925;-82
2022/02/24 00:29:50;;;;;;;;;;;;;;;1.88;80.83;99000.98;1755528;80;24426;-86
2022/02/24 00:32:16;;;;;;;;;;;;;;;1.86;81.00;99000.60;1758591;80;20483;-86
2022/02/24 00:34:42;;;;;;;;;;;;;;;1.82;81.12;98997.70;1753379;80;24711;-83
2022/02/24 00:37:15;;;;;;;;;;;;;;;1.80;81.28;99000.78;1755690;80;21913;-83
2022/02/24 00:39:36;;;;;;;;;;;;;;;1.74;81.42;98991.47;1756209;80;26689;-86
2022/02/24 00:42:02;;;;;;;;;;;;;;;1.69;81.55;98993.32;1751472;81;24477;-85
2022/02/24 00:44:29;;;;;;;;;;;;;;;1.65;81.70;98999.42;1758527;80;20657;-85
2022/02/24 00:46:55;;;;;;;;;;;;;;;1.64;81.90;98997.72;1754430;80;24890;-85
2022/02/24 00:49:22;;;;;;;;;;;;;;;1.63;82.10;98999.48;1757769;81;20234;-84
2022/02/24 00:51:48;;;;;;;;;;;;;;;1.66;82.35;98993.38;1762961;80;25949;-85
2022/02/24 00:54:15;;;;;;;;;;;;;;;1.69;82.63;98983.81;1761142;79;24432;-85
2022/02/24 00:56:41;;;;;;;;;;;;;;;1.76;82.92;98992.70;1758153;80;20193;-83
2022/02/24 00:59:07;;;;;;;;;;;;;;;1.79;83.17;98987.03;1760479;80;24820;-82
2022/02/24 01:01:33;;;;;;;;;;;;;;;1.76;83.38;98988.83;1761018;79;22036;-82
2022/02/24 01:03:59;;;;;;;;;;;;;;;1.72;83.53;98995.81;1762106;80;25965;-84
2022/02/24 01:06:27;;;;;;;;;;;;;;;1.68;83.70;98996.78;1754972;80;24549;-84
2022/02/24 01:08:53;;;;;;;;;;;;;;;1.69;83.91;98992.84;1757012;80;20214;-84
2022/02/24 01:11:28;;;;;;;;;;;;;;;1.71;84.16;98983.79;1757784;79;24974;-84
2022/02/24 01:13:54;;;;;;;;;;;;;;;1.73;84.40;98993.64;1753155;79;22734;-84
2022/02/24 01:16:20;;;;;;;;;;;;;;;1.73;84.65;98991.06;1752859;80;26221;-85
2022/02/24 01:18:47;;;;;;;;;;;;;;;1.75;84.86;98987.13;1758226;80;24387;-86
2022/02/24 01:21:13;;;;;;;;;;;;;;;1.76;85.09;98993.98;1765124;80;20177;-86
2022/02/24 01:23:39;;;;;;;;;;;;;;;1.77;85.33;98991.38;1755712;80;24761;-85
2022/02/24 01:26:05;;;;;;;;;;;;;;;1.80;85.56;98984.02;1764510;80;21914;-86
2022/02/24 01:28:31;;;;;;;;;;;;;;;1.80;85.78;98988.70;1748933;80;26477;-86
2022/02/24 01:30:57;;;;;;;;;;;;;;;1.80;85.97;98987.41;1760021;79;24471;-86
2022/02/24 01:33:23;;;;;;;;;;;;;;;1.81;86.15;98985.68;1754540;80;20223;-85
2022/02/24 01:35:49;;;;;;;;;;;;;;;1.80;86.31;98987.89;1762140;80;24709;-86
2022/02/24 01:38:15;;;;;;;;;;;;;;;1.79;86.47;98981.88;1764840;80;21925;-86
2022/02/24 01:40:43;;;;;;;;;;;;;;;1.81;86.67;98985.24;1759483;80;25943;-87
2022/02/24 01:43:09;;;;;;;;;;;;;;;1.81;86.82;98972.78;1757568;80;24616;-86
2022/02/24 01:45:35;;;;;;;;;;;;;;;1.81;87.00;98971.05;1757928;80;20347;-85
2022/02/24 01:48:01;;;;;;;;;;;;;;;1.84;87.20;98968.84;1755780;80;24713;-85
2022/02/24 01:50:28;;;;;;;;;;;;;;;1.85;87.38;98975.71;1759495;79;22041;-85
2022/02/24 01:52:54;;;;;;;;;;;;;;;1.84;87.49;98966.27;1764166;80;25979;-85
2022/02/24 01:55:20;;;;;;;;;;;;;;;1.82;87.62;98962.88;1759593;80;24662;-86
2022/02/24 01:57:48;;;;;;;;;;;;;;;1.81;87.74;98960.73;1757221;80;20212;-85
2022/02/24 02:00:15;;;;;;;;;;;;;;;1.78;87.86;98950.50;1757601;80;25612;-86
2022/02/24 02:02:45;;;;;;;;;;;;;;;1.81;87.99;98958.15;1754400;80;22460;-86
2022/02/24 02:05:11;;;;;;;;;;;;;;;1.79;88.11;98951.35;1756113;80;25922;-83
2022/02/24 02:07:37;;;;;;;;;;;;;;;1.79;88.25;98944.91;1758888;81;24488;-83
2022/02/24 02:10:04;;;;;;;;;;;;;;;1.80;88.40;98946.60;1755898;80;20306;-83
2022/02/24 02:12:30;;;;;;;;;;;;;;;1.79;88.52;98948.33;1758420;80;24985;-83
2022/02/24 02:14:56;;;;;;;;;;;;;;;1.78;88.62;98945.34;1755990;80;22077;-83
2022/02/24 02:17:22;;;;;;;;;;;;;;;1.79;88.76;98942.32;1755559;80;25940;-83
2022/02/24 02:19:48;;;;;;;;;;;;;;;1.79;88.86;98942.32;1754077;80;24385;-83
2022/02/24 02:22:14;;;;;;;;;;;;;;;1.77;88.97;98946.22;1750905;80;20462;-82
2022/02/24 02:24:40;;;;;;;;;;;;;;;1.78;89.08;98940.63;1761540;81;24830;-82
2022/02/24 02:27:06;;;;;;;;;;;;;;;1.78;89.23;98941.47;1755990;80;21869;-85
2022/02/24 02:29:34;;;;;;;;;;;;;;;1.77;89.32;98943.64;1755973;80;26039;-85
2022/02/24 02:32:00;;;;;;;;;;;;;;;1.76;89.39;98941.95;1760806;80;24612;-86
2022/02/24 02:34:27;;;;;;;;;;;;;;;1.79;89.54;98944.46;1762966;80;20320;-86
2022/02/24 02:36:53;;;;;;;;;;;;;;;1.79;89.68;98943.17;1756670;80;24875;-86
2022/02/24 02:39:19;;;;;;;;;;;;;;;1.80;89.78;98940.97;1756561;80;21947;-86
2022/02/24 02:41:46;;;;;;;;;;;;;;;1.76;89.84;98936.78;1714432;82;26030;-85
2022/02/24 02:44:15;;;;;;;;;;;;;;;1.73;89.87;98932.16;1694726;84;25339;-85
2022/02/24 02:46:41;;;;;;;;;;;;;;;1.70;89.93;98935.66;1723178;82;20248;-86
2022/02/24 02:49:07;;;;;;;;;;;;;;;1.64;89.93;98937.95;1704813;83;25472;-85
2022/02/24 02:51:34;;;;;;;;;;;;;;;1.62;90.00;98929.86;1719198;83;22035;-83
2022/02/24 02:54:00;;;;;;;;;;;;;;;1.61;90.07;98929.02;1724026;82;25973;-84
2022/02/24 02:56:26;;;;;;;;;;;;;;;1.60;90.16;98930.34;1723438;82;20367;-84
2022/02/24 02:58:52;;;;;;;;;;;;;;;1.58;90.25;98920.05;1720951;82;20208;-84
2022/02/24 03:01:18;;;;;;;;;;;;;;;1.58;90.34;98923.10;1726269;81;24577;-83
2022/02/24 03:03:44;;;;;;;;;;;;;;;1.58;90.45;98921.81;1737780;82;21943;-86
2022/02/24 03:06:10;;;;;;;;;;;;;;;1.58;90.57;98914.89;1738998;82;25995;-86
2022/02/24 03:08:37;;;;;;;;;;;;;;;1.59;90.67;98910.14;1723263;82;24547;-85
2022/02/24 03:11:04;;;;;;;;;;;;;;;1.59;90.79;98911.43;1721485;82;20210;-86
2022/02/24 03:13:35;;;;;;;;;;;;;;;1.61;90.91;98918.70;1719415;83;24732;-86
2022/02/24 03:15:58;;;;;;;;;;;;;;;1.62;91.07;98910.52;1721487;83;21967;-84
2022/02/24 03:18:24;;;;;;;;;;;;;;;1.61;91.17;98898.50;1722431;82;26116;-84
2022/02/24 03:20:51;;;;;;;;;;;;;;;1.65;91.29;98901.39;1721058;83;25194;-84
2022/02/24 03:23:17;;;;;;;;;;;;;;;1.68;91.44;98892.30;1719832;82;20211;-86
2022/02/24 03:25:43;;;;;;;;;;;;;;;1.69;91.56;98903.03;1721947;82;24743;-86
2022/02/24 03:28:09;;;;;;;;;;;;;;;1.69;91.63;98907.72;1718045;82;21961;-85
2022/02/24 03:30:37;;;;;;;;;;;;;;;1.73;91.75;98904.63;1717956;82;26030;-86
2022/02/24 03:33:04;;;;;;;;;;;;;;;1.75;91.86;98905.86;1719542;82;24441;-86
2022/02/24 03:35:31;;;;;;;;;;;;;;;1.76;91.93;98902.39;1720463;82;20203;-84
2022/02/24 03:37:59;;;;;;;;;;;;;;;1.74;91.96;98899.88;1718274;83;24905;-84
2022/02/24 03:40:25;;;;;;;;;;;;;;;1.70;92.00;98890.51;1720043;83;22866;-83
2022/02/24 03:42:51;;;;;;;;;;;;;;;1.69;92.03;98883.68;1718554;83;26027;-82
2022/02/24 03:45:18;;;;;;;;;;;;;;;1.68;92.09;98877.67;1720173;82;24399;-84
2022/02/24 03:47:44;;;;;;;;;;;;;;;1.68;92.12;98875.53;1721304;83;20224;-86
2022/02/24 03:50:13;;;;;;;;;;;;;;;1.66;92.15;98879.44;1717300;83;24793;-86
2022/02/24 03:52:40;;;;;;;;;;;;;;;1.61;92.13;98878.72;1716125;83;22689;-83
2022/02/24 03:55:07;;;;;;;;;;;;;;;1.60;92.15;98880.03;1716494;82;26017;-86
2022/02/24 03:57:33;;;;;;;;;;;;;;;1.56;92.15;98877.14;1720339;80;24503;-83
2022/02/24 04:00:04;;;;;;;;;;;;;;;1.56;92.18;98870.26;1716043;82;20872;-85
2022/02/24 04:02:31;;;;;;;;;;;;;;;1.54;92.20;98872.46;1714451;82;24875;-84
2022/02/24 04:04:57;;;;;;;;;;;;;;;1.54;92.27;98869.88;1721920;82;22063;-85
2022/02/24 04:07:23;;;;;;;;;;;;;;;1.58;92.33;98876.67;1727142;82;25961;-86
2022/02/24 04:09:55;;;;;;;;;;;;;;;1.57;92.45;98871.11;1721470;82;24469;-87
2022/02/24 04:12:24;;;;;;;;;;;;;;;1.56;92.48;98864.25;1726336;82;20196;-85
2022/02/24 04:14:50;;;;;;;;;;;;;;;1.55;92.54;98863.84;1723167;82;24799;-86
2022/02/24 04:17:16;;;;;;;;;;;;;;;1.50;92.54;98860.10;1722342;82;22054;-83
2022/02/24 04:19:42;;;;;;;;;;;;;;;1.47;92.55;98860.64;1717935;82;26153;-83
2022/02/24 04:22:08;;;;;;;;;;;;;;;1.47;92.61;98868.38;1722523;82;24440;-83
2022/02/24 04:24:35;;;;;;;;;;;;;;;1.44;92.64;98860.27;1723012;82;20218;-83
2022/02/24 04:27:01;;;;;;;;;;;;;;;1.42;92.69;98863.78;1720841;82;25473;-85
2022/02/24 04:29:28;;;;;;;;;;;;;;;1.42;92.81;98853.47;1716616;82;22125;-82
2022/02/24 04:31:54;;;;;;;;;;;;;;;1.47;92.92;98845.16;1722604;82;26083;-84
2022/02/24 04:34:23;;;;;;;;;;;;;;;1.51;93.05;98842.90;1723497;82;24457;-84
2022/02/24 04:36:49;;;;;;;;;;;;;;;1.53;93.20;98842.39;1716785;82;20244;-84
2022/02/24 04:39:15;;;;;;;;;;;;;;;1.55;93.31;98846.64;1720803;82;24793;-84
2022/02/24 04:41:42;;;;;;;;;;;;;;;1.56;93.39;98847.48;1721843;82;22018;-84
2022/02/24 04:44:08;;;;;;;;;;;;;;;1.54;93.43;98843.65;1726930;82;26056;-83
2022/02/24 04:46:34;;;;;;;;;;;;;;;1.53;93.50;98841.95;1726582;82;24495;-83
2022/02/24 04:49:00;;;;;;;;;;;;;;;1.53;93.54;98841.95;1719362;82;20160;-83
2022/02/24 04:51:26;;;;;;;;;;;;;;;1.53;93.63;98845.82;1721757;82;24842;-82
2022/02/24 04:53:52;;;;;;;;;;;;;;;1.56;93.72;98843.62;1724739;82;22046;-84
2022/02/24 04:56:18;;;;;;;;;;;;;;;1.56;93.81;98837.17;1723495;82;26216;-83
2022/02/24 04:58:44;;;;;;;;;;;;;;;1.55;93.84;98842.77;1726046;82;24533;-82
2022/02/24 05:01:10;;;;;;;;;;;;;;;1.55;93.88;98842.77;1724076;82;20454;-82
2022/02/24 05:03:36;;;;;;;;;;;;;;;1.56;93.96;98843.17;1720843;82;20305;-81
2022/02/24 05:06:02;;;;;;;;;;;;;;;1.56;94.04;98844.91;1718998;82;22259;-81
2022/02/24 05:08:28;;;;;;;;;;;;;;;1.58;94.12;98837.98;1717439;82;25984;-82
2022/02/24 05:10:55;;;;;;;;;;;;;;;1.58;94.18;98836.70;1720248;82;24543;-82
2022/02/24 05:13:21;;;;;;;;;;;;;;;1.63;94.29;98833.10;1722543;82;20354;-82
2022/02/24 05:15:49;;;;;;;;;;;;;;;1.64;94.38;98831.34;1722749;82;24965;-82
2022/02/24 05:18:15;;;;;;;;;;;;;;;1.66;94.44;98833.00;1723994;82;22008;-82
2022/02/24 05:20:41;;;;;;;;;;;;;;;1.63;94.45;98825.80;1720062;81;26141;-83
2022/02/24 05:23:07;;;;;;;;;;;;;;;1.63;94.48;98823.23;1718907;82;24490;-84
2022/02/24 05:25:37;;;;;;;;;;;;;;;1.66;94.55;98821.84;1727090;82;20332;-82
2022/02/24 05:28:06;;;;;;;;;;;;;;;1.66;94.57;98815.39;1718643;82;24820;-82
2022/02/24 05:30:32;;;;;;;;;;;;;;;1.63;94.57;98819.36;1719610;82;22086;-82
2022/02/24 05:32:58;;;;;;;;;;;;;;;1.62;94.57;98818.51;1721277;82;26051;-83
2022/02/24 05:35:24;;;;;;;;;;;;;;;1.60;94.57;98813.82;1726930;81;24495;-82
2022/02/24 05:37:51;;;;;;;;;;;;;;;1.58;94.54;98818.17;1723487;82;20395;-82
2022/02/24 05:40:18;;;;;;;;;;;;;;;1.59;94.54;98821.59;1718371;82;24826;-82
2022/02/24 05:42:44;;;;;;;;;;;;;;;1.58;94.54;98820.75;1729182;82;21890;-82
2022/02/24 05:45:10;;;;;;;;;;;;;;;1.60;94.57;98820.71;1720928;82;25896;-83
2022/02/24 05:47:37;;;;;;;;;;;;;;;1.60;94.61;98818.13;1720041;81;24419;-82
2022/02/24 05:50:07;;;;;;;;;;;;;;;1.59;94.63;98816.00;1725015;82;20252;-82
2022/02/24 05:52:31;;;;;;;;;;;;;;;1.59;94.67;98809.55;1719517;82;25456;-82
2022/02/24 05:54:58;;;;;;;;;;;;;;;1.63;94.71;98809.04;1722980;82;21804;-82
2022/02/24 05:57:24;;;;;;;;;;;;;;;1.67;94.79;98808.06;1728677;82;26941;-83
2022/02/24 05:59:56;;;;;;;;;;;;;;;1.66;94.84;98805.92;1722134;82;25086;-82
2022/02/24 06:02:22;;;;;;;;;;;;;;;1.67;94.85;98806.77;1726590;82;20351;-82
2022/02/24 06:04:48;;;;;;;;;;;;;;;1.66;94.83;98794.75;1724121;82;25839;-82
2022/02/24 06:07:14;;;;;;;;;;;;;;;1.67;94.82;98803.74;1723019;82;22146;-82
2022/02/24 06:09:40;;;;;;;;;;;;;;;1.65;94.81;98786.61;1724689;82;25939;-82
2022/02/24 06:12:07;;;;;;;;;;;;;;;1.66;94.81;98793.46;1722227;82;24438;-82
2022/02/24 06:14:33;;;;;;;;;;;;;;;1.71;94.85;98786.88;1724556;82;20498;-85
2022/02/24 06:16:59;;;;;;;;;;;;;;;1.74;94.91;98779.06;1720472;82;25357;-85
2022/02/24 06:19:25;;;;;;;;;;;;;;;1.79;94.98;98779.33;1725173;82;22041;-85
2022/02/24 06:21:53;;;;;;;;;;;;;;;1.81;95.03;98774.95;1721324;82;26195;-86
2022/02/24 06:24:19;;;;;;;;;;;;;;;1.84;95.07;98772.30;1717978;82;24499;-85
2022/02/24 06:26:45;;;;;;;;;;;;;;;1.93;95.19;98768.59;1719235;82;20335;-86
2022/02/24 06:29:11;;;;;;;;;;;;;;;2.01;95.27;98766.20;1723915;82;24751;-85
2022/02/24 06:31:38;;;;;;;;;;;;;;;2.08;95.36;98767.67;1723408;82;22043;-85
2022/02/24 06:34:04;;;;;;;;;;;;;;;2.16;95.42;98760.16;1716905;82;25946;-85
2022/02/24 06:36:30;;;;;;;;;;;;;;;2.23;95.48;98761.66;1722874;82;25928;-85
2022/02/24 06:38:58;;;;;;;;;;;;;;;2.29;95.50;98755.84;1724845;82;20223;-85
2022/02/24 06:41:25;;;;;;;;;;;;;;;2.36;95.55;98752.17;1729472;82;24893;-85
2022/02/24 06:43:52;;;;;;;;;;;;;;;2.42;95.57;98741.66;1729166;82;21969;-85
2022/02/24 06:46:18;;;;;;;;;;;;;;;2.48;95.57;98742.75;1721870;82;26216;-85
2022/02/24 06:48:45;;;;;;;;;;;;;;;2.55;95.57;98746.43;1718349;82;24460;-85
2022/02/24 06:51:11;;;;;;;;;;;;;;;2.59;95.50;98748.86;1720065;81;20571;-85
2022/02/24 06:53:37;;;;;;;;;;;;;;;2.67;95.49;98746.03;1717797;82;24722;-85
2022/02/24 06:56:03;;;;;;;;;;;;;;;2.74;95.47;98735.42;1721422;82;21830;-84
2022/02/24 06:58:29;;;;;;;;;;;;;;;2.80;95.44;98747.30;1722042;82;25940;-85
2022/02/24 07:00:55;;;;;;;;;;;;;;;2.88;95.40;98743.57;1718328;82;25139;-85
2022/02/24 07:03:21;;;;;;;;;;;;;;;2.95;95.30;98734.69;1726193;82;20283;-85
2022/02/24 07:05:48;;;;;;;;;;;;;;;3.02;95.17;98736.63;1727143;82;24776;-85
2022/02/24 07:08:14;;;;;;;;;;;;;;;3.06;95.06;98733.02;1722224;82;21953;-85
2022/02/24 07:10:40;;;;;;;;;;;;;;;3.09;94.88;98732.94;1722662;82;26025;-85
2022/02/24 07:13:06;;;;;;;;;;;;;;;3.17;94.78;98727.47;1727950;82;24515;-85
2022/02/24 07:15:32;;;;;;;;;;;;;;;3.23;94.65;98724.67;1717148;82;20266;-82
2022/02/24 07:18:03;;;;;;;;;;;;;;;3.28;94.53;98729.23;1721396;82;24896;-82
2022/02/24 07:20:32;;;;;;;;;;;;;;;3.30;94.38;98725.70;1725585;82;22032;-82
2022/02/24 07:22:58;;;;;;;;;;;;;;;3.36;94.22;98725.94;1719137;82;26140;-83
2022/02/24 07:25:24;;;;;;;;;;;;;;;3.40;94.10;98715.02;1717717;82;24305;-82
2022/02/24 07:27:50;;;;;;;;;;;;;;;3.44;93.95;98717.42;1719632;82;20318;-82
2022/02/24 07:30:16;;;;;;;;;;;;;;;3.51;93.87;98710.29;1721145;82;24829;-82
2022/02/24 07:32:42;;;;;;;;;;;;;;;3.56;93.78;98716.98;1719225;82;20302;-82
2022/02/24 07:35:09;;;;;;;;;;;;;;;3.63;93.67;98717.61;1721626;82;25840;-82
2022/02/24 07:37:37;;;;;;;;;;;;;;;3.68;93.57;98716.53;1718015;82;20195;-85
2022/02/24 07:40:06;;;;;;;;;;;;;;;3.76;93.41;98713.19;1719189;82;20164;-86
2022/02/24 07:42:34;;;;;;;;;;;;;;;3.78;93.25;98707.52;1723189;82;24761;-85
2022/02/24 07:45:01;;;;;;;;;;;;;;;3.87;93.15;98709.38;1727493;82;22396;-86
2022/02/24 07:47:27;;;;;;;;;;;;;;;3.94;93.02;98704.33;1726752;82;26049;-86
2022/02/24 07:49:54;;;;;;;;;;;;;;;4.02;92.90;98699.27;1723905;82;24493;-86
2022/02/24 07:52:22;;;;;;;;;;;;;;;4.06;92.80;98688.32;1725456;82;20302;-86
2022/02/24 07:54:48;;;;;;;;;;;;;;;4.14;92.69;98697.48;1724157;82;24219;-84
2022/02/24 07:57:14;;;;;;;;;;;;;;;4.23;92.57;98680.72;1728918;82;22658;-85
2022/02/24 07:59:40;;;;;;;;;;;;;;;4.32;92.44;98680.34;1725620;82;26138;-83
2022/02/24 08:02:07;;;;;;;;;;;;;;;4.42;92.30;98680.83;1724569;82;24490;-84
2022/02/24 08:04:34;;;;;;;;;;;;;;;4.47;92.17;98665.45;1721780;82;20204;-86
2022/02/24 08:07:00;;;;;;;;;;;;;;;4.54;92.00;98673.38;1718623;81;24777;-86
2022/02/24 08:09:26;;;;;;;;;;;;;;;4.62;91.82;98673.06;1727947;82;20443;-86
2022/02/24 08:14:37;;;;;;;;;;;;;;;4.78;91.44;98661.13;1720364;82;24467;-86
2022/02/24 08:17:04;;;;;;;;;;;;;;;4.83;91.18;98654.45;1718436;82;20423;-87
2022/02/24 08:19:30;;;;;;;;;;;;;;;4.88;90.95;98654.64;1719710;82;25041;-87
2022/02/24 08:21:56;;;;;;;;;;;;;;;4.94;90.77;98655.67;1725764;82;22124;-85
2022/02/24 08:24:23;;;;;;;;;;;;;;;5.05;90.62;98646.97;1726631;82;26030;-85
2022/02/24 08:26:49;;;;;;;;;;;;;;;5.16;90.46;98646.94;1723674;82;24599;-83
2022/02/24 08:29:15;;;;;;;;;;;;;;;5.23;90.27;98640.58;1722140;82;20352;-83
2022/02/24 08:31:41;;;;;;;;;;;;;;;5.29;90.05;98635.92;1724740;81;25329;-86
2022/02/24 08:34:07;;;;;;;;;;;;;;;5.38;89.86;98623.84;1725671;82;22148;-86
2022/02/24 08:36:33;;;;;;;;;;;;;;;5.40;89.62;98619.41;1725569;82;26027;-87
2022/02/24 08:39:01;;;;;;;;;;;;;;;5.44;89.36;98613.19;1727949;82;24388;-87
2022/02/24 08:41:27;;;;;;;;;;;;;;;5.52;89.11;98610.67;1715124;82;20311;-87
2022/02/24 08:43:53;;;;;;;;;;;;;;;5.60;88.83;98598.19;1720435;82;24718;-88
2022/02/24 08:46:19;;;;;;;;;;;;;;;5.68;88.51;98586.97;1716691;82;21928;-87
2022/02/24 08:48:45;;;;;;;;;;;;;;;5.74;88.28;98596.61;1724014;82;25978;-87
2022/02/24 08:51:11;;;;;;;;;;;;;;;5.80;88.02;98585.94;1723550;82;24510;-87
2022/02/24 08:53:37;;;;;;;;;;;;;;;5.92;87.80;98581.09;1727886;82;20244;-87
2022/02/24 08:56:04;;;;;;;;;;;;;;;5.99;87.51;98573.40;1695513;82;24756;-87
2022/02/24 08:58:30;;;;;;;;;;;;;;;6.06;87.30;98577.35;1721897;82;22981;-87
2022/02/24 09:00:56;;;;;;;;;;;;;;;6.06;86.95;98571.70;1721610;82;26192;-87
2022/02/24 09:03:25;;;;;;;;;;;;;;;6.11;86.60;98563.22;1723036;82;24666;-87
2022/02/24 09:05:51;;;;;;;;;;;;;;;6.18;86.27;98565.91;1723444;82;20299;-87
2022/02/24 09:08:17;;;;;;;;;;;;;;;6.24;85.93;98563.00;1723948;82;24749;-87
2022/02/24 09:10:43;;;;;;;;;;;;;;;6.31;85.58;98562.24;1728646;81;22020;-87
2022/02/24 09:13:10;;;;;;;;;;;;;;;6.38;85.33;98550.63;1722937;82;26055;-87
2022/02/24 09:15:40;;;;;;;;;;;;;;;6.46;84.99;98545.02;1720206;82;24537;-87
2022/02/24 09:18:07;;;;;;;;;;;;;;;6.55;84.64;98554.93;1721617;82;20625;-87
2022/02/24 09:20:33;;;;;;;;;;;;;;;6.63;84.33;98539.78;1718266;82;24759;-87
2022/02/24 09:22:59;;;;;;;;;;;;;;;6.68;83.98;98539.92;1718937;82;22023;-87
2022/02/24 09:25:26;;;;;;;;;;;;;;;6.75;83.66;98536.55;1719529;82;26757;-87
2022/02/24 09:27:52;;;;;;;;;;;;;;;6.80;83.33;98538.90;1726548;82;24417;-87
2022/02/24 09:30:18;;;;;;;;;;;;;;;6.84;82.96;98541.71;1723187;82;20216;-87
2022/02/24 09:32:51;;;;;;;;;;;;;;;6.92;82.62;98535.20;1721548;82;24811;-87
2022/02/24 09:35:19;;;;;;;;;;;;;;;6.97;82.11;98526.69;1722423;82;22071;-87
2022/02/24 09:37:45;;;;;;;;;;;;;;;6.99;81.65;98522.22;1722865;82;26157;-87
2022/02/24 09:40:11;;;;;;;;;;;;;;;7.00;81.19;98520.00;1724795;82;24519;-87
2022/02/24 09:42:37;;;;;;;;;;;;;;;7.06;80.85;98515.77;1720672;82;20494;-83
2022/02/24 09:45:06;;;;;;;;;;;;;;;7.14;80.52;98513.60;1719623;82;24740;-83
2022/02/24 09:47:32;;;;;;;;;;;;;;;7.24;80.13;98511.78;1720908;82;22622;-83
2022/02/24 09:50:00;;;;;;;;;;;;;;;7.24;79.68;98507.88;1716546;82;26570;-83
2022/02/24 09:52:26;;;;;;;;;;;;;;;7.31;79.37;98502.72;1722640;82;24449;-83
2022/02/24 09:54:52;;;;;;;;;;;;;;;7.36;79.08;98500.24;1721879;81;20298;-83
2022/02/24 09:57:18;;;;;;;;;;;;;;;7.47;78.89;98498.34;1722554;82;25431;-82
2022/02/24 09:59:44;;;;;;;;;;;;;;;7.58;78.70;98496.43;1720114;82;22139;-83
2022/02/24 10:02:15;;;;;;;;;;;;;;;7.61;78.37;98494.48;1722999;82;26018;-83
2022/02/24 10:05:01;;;;;;;;;;;;;;;7.63;77.94;98493.94;1720670;82;24594;-84
2022/02/24 10:07:27;;;;;;;;;;;;;;;7.68;77.58;98495.81;1720848;82;20667;-82
2022/02/24 10:09:53;;;;;;;;;;;;;;;7.70;77.23;98486.59;1720009;82;24901;-84
2022/02/24 10:12:19;;;;;;;;;;;;;;;7.78;76.97;98490.91;1720640;82;22021;-83
2022/02/24 10:14:45;;;;;;;;;;;;;;;7.81;76.68;98481.14;1725591;80;26045;-84
2022/02/24 10:17:13;;;;;;;;;;;;;;;7.92;76.39;98476.61;1723455;82;24478;-83
2022/02/24 10:19:40;;;;;;;;;;;;;;;7.98;76.11;98471.88;1723451;82;20227;-84
2022/02/24 10:22:11;;;;;;;;;;;;;;;8.06;75.93;98477.12;1717927;82;24883;-84
2022/02/24 10:24:38;;;;;;;;;;;;;;;8.11;75.73;98462.88;1718693;82;22127;-82
2022/02/24 10:27:21;;;;;;;;;;;;;;;8.25;75.57;98457.67;1723149;82;26002;-82
2022/02/24 10:30:03;;;;;;;;;;;;;;;8.33;75.15;98462.47;1724201;82;24569;-84
2022/02/24 10:32:31;;;;;;;;;;;;;;;8.38;74.69;98461.73;1721513;82;20196;-84
2022/02/24 10:35:16;;;;;;;;;;;;;;;8.45;74.26;98463.04;1720387;82;24758;-84
2022/02/24 10:37:42;;;;;;;;;;;;;;;8.51;73.86;98457.42;1719991;82;21962;-82
2022/02/24 10:40:08;;;;;;;;;;;;;;;8.55;73.49;98455.48;1719836;82;25936;-82
2022/02/24 10:42:34;;;;;;;;;;;;;;;8.63;73.37;98446.25;1721236;82;24531;-85
2022/02/24 10:45:16;;;;;;;;;;;;;;;8.70;73.12;98431.90;1722791;82;20216;-82
2022/02/24 10:47:35;;;;;;;;;;;;;;;8.84;72.70;98436.73;1720623;82;24841;-83
2022/02/24 10:50:01;;;;;;;;;;;;;;;8.93;72.34;98433.53;1719001;82;22031;-83
2022/02/24 10:52:27;;;;;;;;;;;;;;;8.97;72.01;98426.71;1725320;82;25939;-83
2022/02/24 10:54:58;;;;;;;;;;;;;;;8.99;71.66;98421.41;1721371;82;24520;-83
2022/02/24 10:57:25;;;;;;;;;;;;;;;9.05;71.37;98421.02;1720665;82;20248;-82
2022/02/24 10:59:52;;;;;;;;;;;;;;;9.13;71.05;98414.36;1722168;82;24775;-82
2022/02/24 11:02:18;;;;;;;;;;;;;;;9.16;70.68;98415.95;1719485;82;22047;-82
2022/02/24 11:04:45;;;;;;;;;;;;;;;9.18;70.25;98416.20;1721302;82;26050;-82
2022/02/24 11:07:11;;;;;;;;;;;;;;;9.17;69.86;98406.69;1718218;82;24436;-84
2022/02/24 11:09:39;;;;;;;;;;;;;;;9.22;69.57;98395.48;1720992;82;20251;-84
2022/02/24 11:12:10;;;;;;;;;;;;;;;9.26;69.26;98387.00;1720995;82;24282;-84
2022/02/24 11:14:39;;;;;;;;;;;;;;;9.38;69.15;98390.59;1721885;82;22122;-84
2022/02/24 11:17:07;;;;;;;;;;;;;;;9.48;69.01;98382.50;1721323;82;25996;-84
2022/02/24 11:19:33;;;;;;;;;;;;;;;9.60;68.88;98384.31;1724886;81;24475;-84
2022/02/24 11:22:00;;;;;;;;;;;;;;;9.74;68.87;98379.45;1723130;81;20275;-85
2022/02/24 11:24:26;;;;;;;;;;;;;;;9.85;68.74;98383.02;1719540;82;25457;-84
2022/02/24 11:26:54;;;;;;;;;;;;;;;9.98;68.46;98372.08;1721636;82;22035;-84
2022/02/24 11:29:30;;;;;;;;;;;;;;;10.13;68.30;98366.75;1704416;82;26004;-85
2022/02/24 11:31:58;;;;;;;;;;;;;;;10.20;67.99;98367.55;1698713;83;24610;-84
2022/02/24 11:34:42;;;;;;;;;;;;;;;10.28;67.59;98367.02;1701734;83;20552;-84
2022/02/24 11:37:22;;;;;;;;;;;;;;;10.27;67.19;98359.64;1704084;83;25005;-84
2022/02/24 11:39:48;;;;;;;;;;;;;;;10.27;66.76;98361.42;1704499;83;22111;-86
2022/02/24 11:42:19;;;;;;;;;;;;;;;10.20;66.30;98349.73;1703887;82;26024;-86
2022/02/24 11:44:45;;;;;;;;;;;;;;;10.19;65.91;98350.20;1697432;82;25127;-86
2022/02/24 11:47:12;;;;;;;;;;;;;;;10.26;65.70;98341.44;1732359;81;20219;-86
2022/02/24 11:49:56;;;;;;;;;;;;;;;10.33;65.51;98343.53;1728548;82;25536;-86
2022/02/24 11:52:27;;;;;;;;;;;;;;;10.41;65.28;98336.46;1723854;82;22120;-86
2022/02/24 11:54:53;;;;;;;;;;;;;;;10.48;64.92;98327.21;1719778;82;26020;-86
2022/02/24 11:57:33;;;;;;;;;;;;;;;10.47;64.57;98326.88;1724727;82;24458;-86
2022/02/24 12:00:00;;;;;;;;;;;;;;;10.47;64.18;98321.14;1729390;82;20195;-82
2022/02/24 12:02:43;;;;;;;;;;;;;;;10.56;63.90;98317.52;1731379;82;24821;-83
2022/02/24 12:05:29;;;;;;;;;;;;;;;10.66;63.75;98319.36;1727889;82;22049;-86
2022/02/24 12:08:01;;;;;;;;;;;;;;;10.74;63.55;98299.19;1726505;81;26264;-82
2022/02/24 12:10:45;;;;;;;;;;;;;;;10.85;63.16;98299.25;1729693;82;24512;-86
2022/02/24 12:13:25;;;;;;;;;;;;;;;10.95;62.67;98293.69;1727828;82;20326;-86
2022/02/24 12:16:09;;;;;;;;;;;;;;;11.02;62.37;98283.61;1729123;82;24786;-85
2022/02/24 12:18:36;;;;;;;;;;;;;;;11.02;62.12;98284.92;1725098;82;22062;-85
2022/02/24 12:21:21;;;;;;;;;;;;;;;11.08;61.89;98273.49;1733079;82;25995;-85
2022/02/24 12:23:48;;;;;;;;;;;;;;;11.10;61.61;98279.94;1723873;82;25340;-85
2022/02/24 12:26:15;;;;;;;;;;;;;;;11.05;61.14;98278.13;1723412;82;20156;-82
2022/02/24 12:28:41;;;;;;;;;;;;;;;10.94;60.69;98280.23;1700866;82;24643;-83
2022/02/24 12:31:09;;;;;;;;;;;;;;;10.87;60.32;98277.23;1721945;82;21959;-83
2022/02/24 12:33:35;;;;;;;;;;;;;;;10.90;60.13;98265.23;1727089;82;26145;-84
2022/02/24 12:36:01;;;;;;;;;;;;;;;10.93;60.03;98269.39;1731235;82;24455;-84
2022/02/24 12:38:28;;;;;;;;;;;;;;;11.06;59.94;98261.48;1728453;82;20442;-84
2022/02/24 12:40:54;;;;;;;;;;;;;;;11.14;59.86;98256.02;1725042;82;25405;-84
2022/02/24 12:43:21;;;;;;;;;;;;;;;11.19;59.75;98258.28;1728816;82;22209;-84
2022/02/24 12:45:48;;;;;;;;;;;;;;;11.20;59.56;98256.03;1726278;82;26540;-84
2022/02/24 12:48:15;;;;;;;;;;;;;;;11.22;59.40;98242.36;1722193;82;24440;-83
2022/02/24 12:50:43;;;;;;;;;;;;;;;11.24;59.18;98239.96;1730453;82;20270;-84
2022/02/24 12:53:11;;;;;;;;;;;;;;;11.22;58.89;98245.81;1722841;82;24768;-84
2022/02/24 12:55:37;;;;;;;;;;;;;;;11.30;58.72;98226.41;1728217;82;22842;-83
2022/02/24 12:58:08;;;;;;;;;;;;;;;11.42;58.65;98215.94;1709968;82;26010;-83